< < Back
Terminal Aerodrome Forecast


Current Version              Previous Versions:   1  2  3  4  5  6  7  8  9  

Terminal Aerodrome Forecast

687
FTUS42 KFFC 170300 AAA
TAFAHN
TAF AMD
KAHN 170336Z 1703/1724 10006KT P6SM SKC
     FM171200 08010KT P6SM SCT250
     FM171600 10010G20KT P6SM SCT040 BKN250=



Latest METAR

945
SAUS70 KWBC 171300 RRQ
MTRAHN
METAR KAHN 171551Z 06012G20KT 10SM CLR 13/M01 A3046 RMK AO2 SLP316
T01281011


USA.gov is the U.S. government's official web portal to all federal, state and local government web resources and services.